sensor_id;sensor_type;location;lat;lon;timestamp;pressure;altitude;pressure_sealevel;temperature;humidity
8253;BME280;61313;48.396;10.008;2023-05-12T00:02:13;95867.81;;;11.56;77.92
8253;BME280;61313;48.396;10.008;2023-05-12T00:04:38;95868.41;;;11.61;78.27
8253;BME280;61313;48.396;10.008;2023-05-12T00:07:05;95863.31;;;11.74;77.54
8253;BME280;61313;48.396;10.008;2023-05-12T00:09:31;95863.47;;;11.71;77.58
8253;BME280;61313;48.396;10.008;2023-05-12T00:11:56;95858.59;;;11.33;78.92
8253;BME280;61313;48.396;10.008;2023-05-12T00:14:22;95862.75;;;11.53;78.12
8253;BME280;61313;48.396;10.008;2023-05-12T00:16:47;95857.72;;;11.64;77.91
8253;BME280;61313;48.396;10.008;2023-05-12T00:19:19;95861.22;;;11.49;78.39
8253;BME280;61313;48.396;10.008;2023-05-12T00:21:45;95868.94;;;11.52;78.94
8253;BME280;61313;48.396;10.008;2023-05-12T00:24:11;95867.69;;;11.43;78.50
8253;BME280;61313;48.396;10.008;2023-05-12T00:26:37;95861.91;;;11.53;78.53
8253;BME280;61313;48.396;10.008;2023-05-12T00:29:02;95850.78;;;11.48;78.69
8253;BME280;61313;48.396;10.008;2023-05-12T00:31:30;95860.97;;;11.54;78.57
8253;BME280;61313;48.396;10.008;2023-05-12T00:33:56;95857.81;;;11.63;77.92
8253;BME280;61313;48.396;10.008;2023-05-12T00:36:22;95843.41;;;11.70;78.02
8253;BME280;61313;48.396;10.008;2023-05-12T00:38:47;95848.56;;;11.72;77.59
8253;BME280;61313;48.396;10.008;2023-05-12T00:41:12;95850.75;;;11.79;77.88
8253;BME280;61313;48.396;10.008;2023-05-12T00:43:38;95843.13;;;11.75;78.50
8253;BME280;61313;48.396;10.008;2023-05-12T00:46:04;95843.63;;;11.81;78.04
8253;BME280;61313;48.396;10.008;2023-05-12T00:48:31;95850.25;;;11.73;77.74
8253;BME280;61313;48.396;10.008;2023-05-12T00:50:57;95844.50;;;11.66;78.30
8253;BME280;61313;48.396;10.008;2023-05-12T00:53:23;95851.47;;;11.67;78.35
8253;BME280;61313;48.396;10.008;2023-05-12T00:55:49;95852.63;;;11.77;77.76
8253;BME280;61313;48.396;10.008;2023-05-12T00:58:15;95850.13;;;11.60;78.51
8253;BME280;61313;48.396;10.008;2023-05-12T01:00:40;95847.31;;;11.47;78.99
8253;BME280;61313;48.396;10.008;2023-05-12T01:03:06;95838.63;;;11.77;77.89
8253;BME280;61313;48.396;10.008;2023-05-12T01:05:52;95842.50;;;11.39;79.16
8253;BME280;61313;48.396;10.008;2023-05-12T01:08:20;95838.69;;;11.45;79.34
8253;BME280;61313;48.396;10.008;2023-05-12T01:10:47;95843.69;;;11.50;78.94
8253;BME280;61313;48.396;10.008;2023-05-12T01:13:12;95839.38;;;11.33;80.06
8253;BME280;61313;48.396;10.008;2023-05-12T01:15:41;95838.59;;;11.47;78.46
8253;BME280;61313;48.396;10.008;2023-05-12T01:18:10;95843.84;;;11.47;78.51
8253;BME280;61313;48.396;10.008;2023-05-12T01:20:37;95835.72;;;11.19;79.28
8253;BME280;61313;48.396;10.008;2023-05-12T01:23:03;95837.09;;;11.11;78.96
8253;BME280;61313;48.396;10.008;2023-05-12T01:25:31;95832.69;;;11.27;78.71
8253;BME280;61313;48.396;10.008;2023-05-12T01:27:57;95840.72;;;11.24;79.54
8253;BME280;61313;48.396;10.008;2023-05-12T01:30:24;95830.31;;;11.22;79.46
8253;BME280;61313;48.396;10.008;2023-05-12T01:32:50;95836.75;;;11.33;79.66
8253;BME280;61313;48.396;10.008;2023-05-12T01:35:16;95836.59;;;11.20;80.11
8253;BME280;61313;48.396;10.008;2023-05-12T01:37:41;95834.22;;;11.15;80.36
8253;BME280;61313;48.396;10.008;2023-05-12T01:40:07;95837.50;;;11.19;79.17
8253;BME280;61313;48.396;10.008;2023-05-12T01:42:33;95839.97;;;11.22;80.02
8253;BME280;61313;48.396;10.008;2023-05-12T01:44:58;95844.28;;;11.23;79.35
8253;BME280;61313;48.396;10.008;2023-05-12T01:47:24;95840.50;;;11.13;79.67
8253;BME280;61313;48.396;10.008;2023-05-12T01:49:49;95839.78;;;11.09;79.71
8253;BME280;61313;48.396;10.008;2023-05-12T01:52:15;95842.41;;;11.09;79.72
8253;BME280;61313;48.396;10.008;2023-05-12T01:54:41;95840.56;;;11.11;80.01
8253;BME280;61313;48.396;10.008;2023-05-12T01:57:06;95846.16;;;11.21;79.31
8253;BME280;61313;48.396;10.008;2023-05-12T01:59:32;95852.00;;;10.94;80.21
8253;BME280;61313;48.396;10.008;2023-05-12T02:01:57;95846.53;;;10.81;81.10
8253;BME280;61313;48.396;10.008;2023-05-12T02:04:23;95847.16;;;11.02;79.81
8253;BME280;61313;48.396;10.008;2023-05-12T02:06:48;95849.00;;;10.85;79.79
8253;BME280;61313;48.396;10.008;2023-05-12T02:09:13;95853.41;;;11.00;79.39
8253;BME280;61313;48.396;10.008;2023-05-12T02:11:39;95852.00;;;10.94;79.14
8253;BME280;61313;48.396;10.008;2023-05-12T02:14:04;95850.13;;;10.96;78.42
8253;BME280;61313;48.396;10.008;2023-05-12T02:16:30;95848.75;;;11.05;77.78
8253;BME280;61313;48.396;10.008;2023-05-12T02:18:56;95851.66;;;11.16;78.10
8253;BME280;61313;48.396;10.008;2023-05-12T02:21:21;95847.00;;;11.06;78.30
8253;BME280;61313;48.396;10.008;2023-05-12T02:23:46;95844.28;;;11.07;76.93
8253;BME280;61313;48.396;10.008;2023-05-12T02:26:12;95847.50;;;11.28;77.32
8253;BME280;61313;48.396;10.008;2023-05-12T02:28:37;95844.13;;;11.10;78.62
8253;BME280;61313;48.396;10.008;2023-05-12T02:31:03;95852.41;;;10.87;79.81
8253;BME280;61313;48.396;10.008;2023-05-12T02:33:28;95846.00;;;11.08;78.82
8253;BME280;61313;48.396;10.008;2023-05-12T02:35:54;95851.03;;;10.95;79.59
8253;BME280;61313;48.396;10.008;2023-05-12T02:38:19;95849.25;;;10.96;79.27
8253;BME280;61313;48.396;10.008;2023-05-12T02:40:45;95846.25;;;11.04;79.57
8253;BME280;61313;48.396;10.008;2023-05-12T02:43:10;95837.50;;;11.03;79.65
8253;BME280;61313;48.396;10.008;2023-05-12T02:45:36;95847.91;;;10.89;79.40
8253;BME280;61313;48.396;10.008;2023-05-12T02:48:01;95847.50;;;11.12;78.68
8253;BME280;61313;48.396;10.008;2023-05-12T02:50:27;95843.88;;;10.99;79.18
8253;BME280;61313;48.396;10.008;2023-05-12T02:52:52;95842.91;;;11.00;79.65
8253;BME280;61313;48.396;10.008;2023-05-12T02:55:18;95845.66;;;10.98;79.55
8253;BME280;61313;48.396;10.008;2023-05-12T02:57:43;95846.13;;;10.73;79.31
8253;BME280;61313;48.396;10.008;2023-05-12T03:00:09;95843.53;;;10.89;79.39
8253;BME280;61313;48.396;10.008;2023-05-12T03:02:36;95839.28;;;11.02;79.28
8253;BME280;61313;48.396;10.008;2023-05-12T03:05:03;95834.56;;;11.25;77.81
8253;BME280;61313;48.396;10.008;2023-05-12T03:07:29;95844.38;;;11.21;77.85
8253;BME280;61313;48.396;10.008;2023-05-12T03:09:54;95834.44;;;11.27;78.03
8253;BME280;61313;48.396;10.008;2023-05-12T03:12:20;95838.13;;;11.08;78.97
8253;BME280;61313;48.396;10.008;2023-05-12T03:14:45;95839.81;;;11.25;77.84
8253;BME280;61313;48.396;10.008;2023-05-12T03:17:11;95838.28;;;11.37;77.77
8253;BME280;61313;48.396;10.008;2023-05-12T03:19:36;95832.44;;;11.32;77.85
8253;BME280;61313;48.396;10.008;2023-05-12T03:22:02;95827.78;;;10.89;78.54
8253;BME280;61313;48.396;10.008;2023-05-12T03:24:28;95832.50;;;11.14;78.63
8253;BME280;61313;48.396;10.008;2023-05-12T03:26:54;95835.91;;;11.16;78.18
8253;BME280;61313;48.396;10.008;2023-05-12T03:29:20;95837.25;;;10.92;79.29
8253;BME280;61313;48.396;10.008;2023-05-12T03:31:46;95840.31;;;11.16;77.43
8253;BME280;61313;48.396;10.008;2023-05-12T03:34:11;95834.53;;;11.09;78.11
8253;BME280;61313;48.396;10.008;2023-05-12T03:36:37;95834.19;;;10.99;78.40
8253;BME280;61313;48.396;10.008;2023-05-12T03:39:02;95838.88;;;11.10;78.03
8253;BME280;61313;48.396;10.008;2023-05-12T03:41:28;95842.00;;;11.01;78.15
8253;BME280;61313;48.396;10.008;2023-05-12T03:43:53;95836.50;;;11.06;78.44
8253;BME280;61313;48.396;10.008;2023-05-12T03:46:19;95841.31;;;10.97;78.50
8253;BME280;61313;48.396;10.008;2023-05-12T03:48:45;95843.97;;;11.13;78.50
8253;BME280;61313;48.396;10.008;2023-05-12T03:51:10;95836.66;;;11.18;78.19
8253;BME280;61313;48.396;10.008;2023-05-12T03:53:36;95834.72;;;11.06;78.59
8253;BME280;61313;48.396;10.008;2023-05-12T03:56:04;95828.78;;;11.02;78.44
8253;BME280;61313;48.396;10.008;2023-05-12T03:58:30;95831.06;;;10.93;78.82
8253;BME280;61313;48.396;10.008;2023-05-12T04:00:56;95837.16;;;10.93;79.13
8253;BME280;61313;48.396;10.008;2023-05-12T04:03:21;95833.94;;;10.88;78.55
8253;BME280;61313;48.396;10.008;2023-05-12T04:05:46;95842.66;;;10.73;80.01
8253;BME280;61313;48.396;10.008;2023-05-12T04:08:12;95836.94;;;10.65;80.26
8253;BME280;61313;48.396;10.008;2023-05-12T04:10:38;95832.00;;;10.92;79.86
8253;BME280;61313;48.396;10.008;2023-05-12T04:13:04;95833.16;;;10.70;80.03
8253;BME280;61313;48.396;10.008;2023-05-12T04:15:30;95834.19;;;10.99;78.92
8253;BME280;61313;48.396;10.008;2023-05-12T04:17:56;95830.81;;;11.13;78.63
8253;BME280;61313;48.396;10.008;2023-05-12T04:20:21;95839.03;;;11.23;78.38
8253;BME280;61313;48.396;10.008;2023-05-12T04:22:47;95834.72;;;11.22;77.88
8253;BME280;61313;48.396;10.008;2023-05-12T04:25:12;95834.38;;;10.96;78.89
8253;BME280;61313;48.396;10.008;2023-05-12T04:27:38;95831.66;;;11.30;77.61
8253;BME280;61313;48.396;10.008;2023-05-12T04:30:04;95834.44;;;11.27;78.37
8253;BME280;61313;48.396;10.008;2023-05-12T04:32:29;95842.41;;;11.09;79.08
8253;BME280;61313;48.396;10.008;2023-05-12T04:34:55;95842.31;;;11.27;77.95
8253;BME280;61313;48.396;10.008;2023-05-12T04:37:21;95844.38;;;11.37;76.79
8253;BME280;61313;48.396;10.008;2023-05-12T04:39:46;95850.81;;;11.32;77.71
8253;BME280;61313;48.396;10.008;2023-05-12T04:42:12;95847.19;;;11.34;76.46
8253;BME280;61313;48.396;10.008;2023-05-12T04:44:38;95842.56;;;11.54;76.67
8253;BME280;61313;48.396;10.008;2023-05-12T04:47:03;95852.47;;;11.64;76.94
8253;BME280;61313;48.396;10.008;2023-05-12T04:49:29;95838.16;;;11.38;78.17
8253;BME280;61313;48.396;10.008;2023-05-12T04:51:54;95844.03;;;11.43;77.76
8253;BME280;61313;48.396;10.008;2023-05-12T04:54:20;95847.75;;;11.39;77.62
8253;BME280;61313;48.396;10.008;2023-05-12T04:56:46;95850.91;;;11.46;78.19
8253;BME280;61313;48.396;10.008;2023-05-12T04:59:11;95850.72;;;11.49;77.69
8253;BME280;61313;48.396;10.008;2023-05-12T05:01:39;95850.78;;;11.63;77.42
8253;BME280;61313;48.396;10.008;2023-05-12T05:04:05;95859.28;;;11.53;77.92
8253;BME280;61313;48.396;10.008;2023-05-12T05:06:31;95866.72;;;11.44;78.15
8253;BME280;61313;48.396;10.008;2023-05-12T05:08:56;95855.06;;;11.34;78.50
8253;BME280;61313;48.396;10.008;2023-05-12T05:11:22;95855.47;;;11.42;78.47
8253;BME280;61313;48.396;10.008;2023-05-12T05:13:47;95864.53;;;11.37;78.65
8253;BME280;61313;48.396;10.008;2023-05-12T05:16:13;95860.53;;;11.61;77.52
8253;BME280;61313;48.396;10.008;2023-05-12T05:18:38;95859.75;;;11.59;78.64
8253;BME280;61313;48.396;10.008;2023-05-12T05:21:06;95861.38;;;11.62;77.68
8253;BME280;61313;48.396;10.008;2023-05-12T05:23:32;95866.47;;;11.49;78.94
8253;BME280;61313;48.396;10.008;2023-05-12T05:25:57;95865.78;;;11.61;77.62
8253;BME280;61313;48.396;10.008;2023-05-12T05:28:22;95866.56;;;11.48;77.60
8253;BME280;61313;48.396;10.008;2023-05-12T05:30:48;95866.06;;;11.41;78.30
8253;BME280;61313;48.396;10.008;2023-05-12T05:33:13;95870.13;;;11.47;78.63
8253;BME280;61313;48.396;10.008;2023-05-12T05:35:39;95869.34;;;11.60;77.68
8253;BME280;61313;48.396;10.008;2023-05-12T05:38:06;95873.84;;;11.58;76.36
8253;BME280;61313;48.396;10.008;2023-05-12T05:40:31;95884.38;;;11.58;75.79
8253;BME280;61313;48.396;10.008;2023-05-12T05:42:57;95876.31;;;11.30;76.30
8253;BME280;61313;48.396;10.008;2023-05-12T05:45:23;95873.78;;;11.44;75.39
8253;BME280;61313;48.396;10.008;2023-05-12T05:47:48;95877.06;;;11.48;75.84
8253;BME280;61313;48.396;10.008;2023-05-12T05:50:16;95883.84;;;11.52;76.08
8253;BME280;61313;48.396;10.008;2023-05-12T05:52:41;95881.66;;;11.60;75.79
8253;BME280;61313;48.396;10.008;2023-05-12T05:55:07;95884.38;;;11.58;75.84
8253;BME280;61313;48.396;10.008;2023-05-12T05:57:32;95871.72;;;11.65;75.86
8253;BME280;61313;48.396;10.008;2023-05-12T05:59:58;95883.25;;;11.62;75.88
8253;BME280;61313;48.396;10.008;2023-05-12T06:02:23;95892.25;;;11.58;76.59
8253;BME280;61313;48.396;10.008;2023-05-12T06:04:49;95892.34;;;11.41;76.04
8253;BME280;61313;48.396;10.008;2023-05-12T06:07:14;95887.56;;;11.48;76.96
8253;BME280;61313;48.396;10.008;2023-05-12T06:09:40;95886.16;;;11.42;76.51
8253;BME280;61313;48.396;10.008;2023-05-12T06:12:05;95886.22;;;11.56;75.23
8253;BME280;61313;48.396;10.008;2023-05-12T06:14:31;95893.44;;;11.53;75.65
8253;BME280;61313;48.396;10.008;2023-05-12T06:16:56;95889.72;;;11.41;75.60
8253;BME280;61313;48.396;10.008;2023-05-12T06:19:22;95892.66;;;11.66;75.68
8253;BME280;61313;48.396;10.008;2023-05-12T06:21:47;95892.81;;;11.48;75.00
8253;BME280;61313;48.396;10.008;2023-05-12T06:24:13;95890.44;;;11.11;76.00
8253;BME280;61313;48.396;10.008;2023-05-12T06:26:38;95891.06;;;11.32;74.34
8253;BME280;61313;48.396;10.008;2023-05-12T06:29:06;95898.97;;;11.48;75.33
8253;BME280;61313;48.396;10.008;2023-05-12T06:31:32;95897.66;;;11.71;75.30
8253;BME280;61313;48.396;10.008;2023-05-12T06:33:58;95893.91;;;11.75;75.29
8253;BME280;61313;48.396;10.008;2023-05-12T06:36:24;95894.69;;;11.77;73.96
8253;BME280;61313;48.396;10.008;2023-05-12T06:38:49;95895.53;;;11.78;74.11
8253;BME280;61313;48.396;10.008;2023-05-12T06:41:15;95891.81;;;11.66;74.63
8253;BME280;61313;48.396;10.008;2023-05-12T06:43:41;95895.47;;;11.63;75.18
8253;BME280;61313;48.396;10.008;2023-05-12T06:46:07;95897.91;;;11.66;74.57
8253;BME280;61313;48.396;10.008;2023-05-12T06:48:32;95894.44;;;11.66;74.63
8253;BME280;61313;48.396;10.008;2023-05-12T06:50:58;95888.75;;;11.74;73.17
8253;BME280;61313;48.396;10.008;2023-05-12T06:53:23;95890.03;;;11.66;73.81
8253;BME280;61313;48.396;10.008;2023-05-12T06:55:49;95885.63;;;11.67;74.14
8253;BME280;61313;48.396;10.008;2023-05-12T06:58:15;95893.34;;;11.54;74.63
8253;BME280;61313;48.396;10.008;2023-05-12T07:00:40;95887.66;;;11.62;74.43
8253;BME280;61313;48.396;10.008;2023-05-12T07:03:06;95892.63;;;11.82;74.00
8253;BME280;61313;48.396;10.008;2023-05-12T07:05:34;95890.47;;;11.91;73.09
8253;BME280;61313;48.396;10.008;2023-05-12T07:08:00;95891.47;;;11.72;74.23
8253;BME280;61313;48.396;10.008;2023-05-12T07:10:25;95889.00;;;12.01;72.98
8253;BME280;61313;48.396;10.008;2023-05-12T07:12:50;95888.31;;;11.97;73.00
8253;BME280;61313;48.396;10.008;2023-05-12T07:15:16;95895.31;;;12.13;71.93
8253;BME280;61313;48.396;10.008;2023-05-12T07:17:41;95900.00;;;11.76;71.50
8253;BME280;61313;48.396;10.008;2023-05-12T07:20:07;95896.47;;;11.77;71.95
8253;BME280;61313;48.396;10.008;2023-05-12T07:22:34;95895.19;;;11.68;71.23
8253;BME280;61313;48.396;10.008;2023-05-12T07:24:59;95895.59;;;11.76;71.40
8253;BME280;61313;48.396;10.008;2023-05-12T07:27:25;95898.34;;;11.91;70.98
8253;BME280;61313;48.396;10.008;2023-05-12T07:29:51;95894.91;;;12.04;70.01
8253;BME280;61313;48.396;10.008;2023-05-12T07:32:16;95893.16;;;11.89;70.67
8253;BME280;61313;48.396;10.008;2023-05-12T07:34:41;95898.66;;;11.84;71.75
8253;BME280;61313;48.396;10.008;2023-05-12T07:37:07;95895.53;;;11.94;71.98
8253;BME280;61313;48.396;10.008;2023-05-12T07:39:32;95896.34;;;12.10;71.62
8253;BME280;61313;48.396;10.008;2023-05-12T07:41:58;95895.34;;;11.81;73.15
8253;BME280;61313;48.396;10.008;2023-05-12T07:44:23;95890.09;;;12.27;72.21
8253;BME280;61313;48.396;10.008;2023-05-12T07:46:49;95897.03;;;12.28;70.07
8253;BME280;61313;48.396;10.008;2023-05-12T07:49:14;95898.22;;;12.08;70.30
8253;BME280;61313;48.396;10.008;2023-05-12T07:51:40;95898.06;;;12.25;70.95
8253;BME280;61313;48.396;10.008;2023-05-12T07:54:05;95900.44;;;12.00;71.16
8253;BME280;61313;48.396;10.008;2023-05-12T07:56:32;95892.88;;;12.10;70.67
8253;BME280;61313;48.396;10.008;2023-05-12T07:58:57;95893.94;;;12.21;69.63
8253;BME280;61313;48.396;10.008;2023-05-12T08:01:22;95897.06;;;11.82;71.61
8253;BME280;61313;48.396;10.008;2023-05-12T08:03:49;95901.91;;;12.20;70.71
8253;BME280;61313;48.396;10.008;2023-05-12T08:06:16;95901.69;;;12.08;71.34
8253;BME280;61313;48.396;10.008;2023-05-12T08:08:41;95900.81;;;12.24;70.58
8253;BME280;61313;48.396;10.008;2023-05-12T08:11:07;95895.72;;;12.21;70.07
8253;BME280;61313;48.396;10.008;2023-05-12T08:13:35;95898.41;;;12.49;69.61
8253;BME280;61313;48.396;10.008;2023-05-12T08:16:00;95890.22;;;12.40;70.19
8253;BME280;61313;48.396;10.008;2023-05-12T08:18:26;95901.22;;;12.46;70.04
8253;BME280;61313;48.396;10.008;2023-05-12T08:20:51;95895.22;;;12.59;69.43
8253;BME280;61313;48.396;10.008;2023-05-12T08:23:17;95901.69;;;12.39;71.12
8253;BME280;61313;48.396;10.008;2023-05-12T08:25:42;95893.75;;;12.69;71.21
8253;BME280;61313;48.396;10.008;2023-05-12T08:28:09;95901.44;;;12.58;72.34
8253;BME280;61313;48.396;10.008;2023-05-12T08:30:35;95899.94;;;12.68;72.34
8253;BME280;61313;48.396;10.008;2023-05-12T08:33:02;95902.41;;;12.71;73.85
8253;BME280;61313;48.396;10.008;2023-05-12T08:35:27;95901.09;;;12.64;73.67
8253;BME280;61313;48.396;10.008;2023-05-12T08:37:53;95901.25;;;12.89;73.18
8253;BME280;61313;48.396;10.008;2023-05-12T08:40:22;95902.31;;;12.87;72.69
8253;BME280;61313;48.396;10.008;2023-05-12T08:42:54;95911.34;;;13.11;71.83
8253;BME280;61313;48.396;10.008;2023-05-12T08:45:24;95906.91;;;13.12;70.96
8253;BME280;61313;48.396;10.008;2023-05-12T08:47:52;95905.31;;;13.24;71.62
8253;BME280;61313;48.396;10.008;2023-05-12T08:50:21;95909.38;;;13.29;70.71
8253;BME280;61313;48.396;10.008;2023-05-12T08:52:47;95915.59;;;13.14;70.22
8253;BME280;61313;48.396;10.008;2023-05-12T08:55:13;95908.44;;;13.45;69.74
8253;BME280;61313;48.396;10.008;2023-05-12T08:57:39;95902.22;;;14.00;68.80
8253;BME280;61313;48.396;10.008;2023-05-12T09:00:07;95902.22;;;14.27;68.01
8253;BME280;61313;48.396;10.008;2023-05-12T09:02:36;95904.25;;;14.09;68.55
8253;BME280;61313;48.396;10.008;2023-05-12T09:05:02;95899.00;;;14.09;65.79
8253;BME280;61313;48.396;10.008;2023-05-12T09:07:27;95905.44;;;13.78;67.35
8253;BME280;61313;48.396;10.008;2023-05-12T09:09:57;95902.94;;;13.48;66.12
8253;BME280;61313;48.396;10.008;2023-05-12T09:12:30;95904.13;;;13.71;65.18
8253;BME280;61313;48.396;10.008;2023-05-12T09:15:06;95915.53;;;13.30;66.73
8253;BME280;61313;48.396;10.008;2023-05-12T09:17:33;95907.28;;;13.34;67.81
8253;BME280;61313;48.396;10.008;2023-05-12T09:19:58;95910.28;;;13.57;65.79
8253;BME280;61313;48.396;10.008;2023-05-12T09:22:31;95905.03;;;13.43;65.92
8253;BME280;61313;48.396;10.008;2023-05-12T09:24:59;95912.47;;;13.22;66.92
8253;BME280;61313;48.396;10.008;2023-05-12T09:27:28;95910.13;;;13.31;67.69
8253;BME280;61313;48.396;10.008;2023-05-12T09:29:54;95906.97;;;13.53;67.57
8253;BME280;61313;48.396;10.008;2023-05-12T09:32:30;95906.59;;;13.60;67.99
8253;BME280;61313;48.396;10.008;2023-05-12T09:35:09;95909.31;;;13.72;66.92
8253;BME280;61313;48.396;10.008;2023-05-12T09:37:38;95911.34;;;13.26;66.98
8253;BME280;61313;48.396;10.008;2023-05-12T09:40:06;95907.22;;;13.36;67.13
8253;BME280;61313;48.396;10.008;2023-05-12T09:42:33;95897.84;;;13.86;65.52
8253;BME280;61313;48.396;10.008;2023-05-12T09:45:06;95903.81;;;14.30;63.96
8253;BME280;61313;48.396;10.008;2023-05-12T09:47:37;95903.81;;;14.30;63.05
8253;BME280;61313;48.396;10.008;2023-05-12T09:50:04;95909.91;;;13.90;62.92
8253;BME280;61313;48.396;10.008;2023-05-12T09:52:35;95915.88;;;13.80;63.69
8253;BME280;61313;48.396;10.008;2023-05-12T09:55:11;95906.59;;;13.60;64.62
8253;BME280;61313;48.396;10.008;2023-05-12T09:57:45;95912.19;;;13.82;64.58
8253;BME280;61313;48.396;10.008;2023-05-12T10:00:13;95911.09;;;13.72;63.71
8253;BME280;61313;48.396;10.008;2023-05-12T10:02:40;95909.53;;;13.55;64.13
8253;BME280;61313;48.396;10.008;2023-05-12T10:05:13;95911.81;;;13.47;63.84
8253;BME280;61313;48.396;10.008;2023-05-12T10:07:43;95912.25;;;13.25;64.17
8253;BME280;61313;48.396;10.008;2023-05-12T10:10:10;95914.59;;;13.72;63.84
8253;BME280;61313;48.396;10.008;2023-05-12T10:12:38;95906.25;;;13.79;63.28
8253;BME280;61313;48.396;10.008;2023-05-12T10:15:05;95904.78;;;14.02;62.97
8253;BME280;61313;48.396;10.008;2023-05-12T10:17:32;95906.22;;;14.33;62.31
8253;BME280;61313;48.396;10.008;2023-05-12T10:19:59;95895.72;;;14.06;60.96
8253;BME280;61313;48.396;10.008;2023-05-12T10:22:26;95895.38;;;14.37;59.92
8253;BME280;61313;48.396;10.008;2023-05-12T10:24:53;95902.47;;;14.10;61.02
8253;BME280;61313;48.396;10.008;2023-05-12T10:27:20;95895.88;;;14.30;61.18
8253;BME280;61313;48.396;10.008;2023-05-12T10:29:46;95902.59;;;14.21;60.84
8253;BME280;61313;48.396;10.008;2023-05-12T10:32:12;95898.66;;;14.41;58.43
8253;BME280;61313;48.396;10.008;2023-05-12T10:34:39;95893.00;;;14.60;59.89
8253;BME280;61313;48.396;10.008;2023-05-12T10:37:08;95897.53;;;14.71;59.98
8253;BME280;61313;48.396;10.008;2023-05-12T10:39:50;95893.69;;;14.36;61.46
8253;BME280;61313;48.396;10.008;2023-05-12T10:42:20;95896.63;;;14.72;60.99
8253;BME280;61313;48.396;10.008;2023-05-12T10:44:54;95891.00;;;14.76;58.84
8253;BME280;61313;48.396;10.008;2023-05-12T10:47:35;95886.03;;;14.72;57.98
8253;BME280;61313;48.396;10.008;2023-05-12T10:50:01;95883.41;;;14.72;58.59
8253;BME280;61313;48.396;10.008;2023-05-12T10:52:27;95887.94;;;14.82;59.71
8253;BME280;61313;48.396;10.008;2023-05-12T10:54:59;95888.38;;;14.76;59.21
8253;BME280;61313;48.396;10.008;2023-05-12T10:57:25;95892.00;;;14.48;59.39
8253;BME280;61313;48.396;10.008;2023-05-12T11:00:00;95895.03;;;14.29;60.94
8253;BME280;61313;48.396;10.008;2023-05-12T11:02:27;95893.78;;;14.48;60.95
8253;BME280;61313;48.396;10.008;2023-05-12T11:04:57;95889.09;;;14.66;61.05
8253;BME280;61313;48.396;10.008;2023-05-12T11:07:27;95892.34;;;14.69;59.67
8253;BME280;61313;48.396;10.008;2023-05-12T11:09:58;95901.25;;;14.68;57.12
8253;BME280;61313;48.396;10.008;2023-05-12T11:12:28;95890.47;;;14.58;56.84
8253;BME280;61313;48.396;10.008;2023-05-12T11:14:58;95893.84;;;14.60;58.22
8253;BME280;61313;48.396;10.008;2023-05-12T11:17:24;95894.28;;;14.80;58.53
8253;BME280;61313;48.396;10.008;2023-05-12T11:19:49;95893.75;;;14.75;58.30
8253;BME280;61313;48.396;10.008;2023-05-12T11:22:17;95897.44;;;14.85;56.99
8253;BME280;61313;48.396;10.008;2023-05-12T11:24:44;95895.38;;;14.37;56.94
8253;BME280;61313;48.396;10.008;2023-05-12T11:27:14;95893.31;;;14.81;57.59
8253;BME280;61313;48.396;10.008;2023-05-12T11:29:41;95895.34;;;14.65;58.66
8253;BME280;61313;48.396;10.008;2023-05-12T11:32:10;95897.00;;;14.66;59.69
8253;BME280;61313;48.396;10.008;2023-05-12T11:34:38;95900.81;;;14.61;60.58
8253;BME280;61313;48.396;10.008;2023-05-12T11:37:04;95897.78;;;14.40;61.81
8253;BME280;61313;48.396;10.008;2023-05-12T11:39:31;95906.97;;;14.22;62.94
8253;BME280;61313;48.396;10.008;2023-05-12T11:42:05;95907.78;;;14.23;63.48
8253;BME280;61313;48.396;10.008;2023-05-12T11:44:32;95904.72;;;14.16;62.77
8253;BME280;61313;48.396;10.008;2023-05-12T11:47:12;95909.91;;;13.90;64.39
8253;BME280;61313;48.396;10.008;2023-05-12T11:49:51;95909.81;;;13.50;67.32
8253;BME280;61313;48.396;10.008;2023-05-12T11:52:18;95911.94;;;13.72;66.67
8253;BME280;61313;48.396;10.008;2023-05-12T11:55:02;95913.13;;;13.54;67.36
8253;BME280;61313;48.396;10.008;2023-05-12T11:57:34;95920.44;;;13.63;68.49
8253;BME280;61313;48.396;10.008;2023-05-12T12:00:06;95917.72;;;13.92;67.93
8253;BME280;61313;48.396;10.008;2023-05-12T12:02:33;95928.88;;;13.83;67.89
8253;BME280;61313;48.396;10.008;2023-05-12T12:05:00;95920.75;;;13.86;68.14
8253;BME280;61313;48.396;10.008;2023-05-12T12:07:36;95927.50;;;13.63;68.09
8253;BME280;61313;48.396;10.008;2023-05-12T12:10:15;95917.22;;;13.72;68.37
8253;BME280;61313;48.396;10.008;2023-05-12T12:12:41;95932.28;;;13.70;68.84
8253;BME280;61313;48.396;10.008;2023-05-12T12:15:08;95933.13;;;13.71;67.51
8253;BME280;61313;48.396;10.008;2023-05-12T12:17:34;95936.13;;;13.38;66.74
8253;BME280;61313;48.396;10.008;2023-05-12T12:20:00;95937.00;;;13.51;66.65
8253;BME280;61313;48.396;10.008;2023-05-12T12:22:25;95933.22;;;13.69;66.12
8253;BME280;61313;48.396;10.008;2023-05-12T12:24:51;95927.69;;;14.01;65.52
8253;BME280;61313;48.396;10.008;2023-05-12T12:27:17;95922.59;;;13.98;64.65
8253;BME280;61313;48.396;10.008;2023-05-12T12:29:42;95928.84;;;14.10;64.79
8253;BME280;61313;48.396;10.008;2023-05-12T12:32:07;95938.19;;;13.74;65.89
8253;BME280;61313;48.396;10.008;2023-05-12T12:34:33;95934.47;;;13.64;65.46
8253;BME280;61313;48.396;10.008;2023-05-12T12:36:59;95937.81;;;13.80;65.39
8253;BME280;61313;48.396;10.008;2023-05-12T12:39:24;95933.13;;;13.98;64.58
8253;BME280;61313;48.396;10.008;2023-05-12T12:41:50;95930.25;;;14.15;64.37
8253;BME280;61313;48.396;10.008;2023-05-12T12:44:15;95927.44;;;13.91;65.53
8253;BME280;61313;48.396;10.008;2023-05-12T12:46:41;95944.56;;;13.57;66.11
8253;BME280;61313;48.396;10.008;2023-05-12T12:49:07;95941.56;;;13.49;65.39
8253;BME280;61313;48.396;10.008;2023-05-12T12:51:32;95938.63;;;13.53;65.56
8253;BME280;61313;48.396;10.008;2023-05-12T12:53:59;95936.97;;;13.80;63.46
8253;BME280;61313;48.396;10.008;2023-05-12T12:56:24;95935.22;;;13.93;63.44
8253;BME280;61313;48.396;10.008;2023-05-12T12:58:50;95942.91;;;14.10;62.63